Latest Weather Observations for Ceduna

IDS60801

Issued at 5:31 am CST Friday 31 July 2015 (issued every 30 minutes, with the page automatically refreshed every 10 minutes)

About weather observations | Map of weather stations | Latest weather observations for SA | Other Formats
Station Details ID: 018012 Name: CEDUNA AMO Lat: -32.13 Lon: 133.70 Height: 15.3 m
Data from the previous 72 hours. | See also: Recent months at Ceduna
Date/Time
CST
Temp
°C
App
Temp
°C
Dew
Point
Rel
Hum
%
Delta-T
°C
Wind Press
QNH
hPa
Press
MSL
hPa
Rain
since 9 am
mm
Dir
 
Spd
km/h
Gust
km/h
Spd
kts
Gust
kts
31/05:30am 6.4 4.2 6.4 100 0.0 NE 7 9 4 5 1020.5 1020.5 0.2
31/05:00am 6.2 3.6 6.2 100 0.0 NNE 9 11 5 6 1020.6 1020.6 0.2
31/04:30am 6.0 3.4 6.0 100 0.0 NE 9 11 5 6 1020.7 1020.7 0.2
31/04:00am 6.3 4.3 6.2 99 0.0 NNE 6 7 3 4 1021.1 1021.1 0.2
31/03:30am 7.2 4.8 7.2 100 0.0 NNE 9 9 5 5 1021.5 1021.5 0.0
31/03:00am 7.4 5.7 7.4 100 0.0 NNE 6 11 3 6 1021.7 1021.7 0.0
31/02:30am 6.4 5.6 6.3 99 0.0 CALM 0 0 0 0 1022.1 1022.1 0.0
31/02:00am 7.3 6.3 7.2 99 0.0 N 2 7 1 4 1022.4 1022.4 0.0
31/01:30am 7.4 6.4 7.3 99 0.0 NNW 2 6 1 3 1022.3 1022.3 0.0
31/01:00am 7.8 6.0 7.8 100 0.0 N 7 9 4 5 1022.5 1022.5 0.0
31/12:30am 7.6 5.7 7.5 99 0.0 NNE 7 9 4 5 1022.4 1022.4 0.0
31/12:00am 7.6 5.9 7.5 99 0.0 NNE 6 7 3 4 1022.8 1022.8 0.0
 
Date/Time
CST
Temp
°C
App
Temp
°C
Dew
Point
Rel
Hum
%
Delta-T
°C
Wind Press
QNH
hPa
Press
MSL
hPa
Rain
since 9 am
mm
Dir
 
Spd
km/h
Gust
km/h
Spd
kts
Gust
kts
30/11:30pm 7.6 5.3 7.5 99 0.0 N 9 11 5 6 1023.3 1023.3 0.0
30/11:00pm 7.0 5.0 6.9 99 0.0 N 7 9 4 5 1023.4 1023.4 0.0
30/10:42pm 6.3 5.4 6.0 98 0.1 CALM 0 0 0 0 1023.5 1023.5 0.0
30/10:30pm 6.3 5.4 6.0 98 0.1 CALM 0 0 0 0 1023.5 1023.5 0.0
30/10:07pm 6.2 5.3 5.9 98 0.1 CALM 0 0 0 0 1023.5 1023.5 0.0
30/10:00pm 6.0 5.0 5.6 97 0.2 CALM 0 4 0 2 1023.6 1023.6 0.0
30/09:30pm 6.8 4.8 6.2 96 0.3 N 6 7 3 4 1023.5 1023.5 0.0
30/09:07pm 7.3 5.4 6.9 97 0.2 NNE 6 7 3 4 1023.3 1023.3 0.0
30/09:00pm 7.7 5.9 7.3 97 0.2 NNE 6 7 3 4 1023.2 1023.2 0.0
30/08:30pm 8.8 7.3 8.4 97 0.2 W 6 7 3 4 1023.4 1023.4 0.0
30/08:00pm 9.2 7.6 8.7 97 0.2 SW 7 7 4 4 1023.1 1023.1 0.0
30/07:30pm 10.9 9.8 9.8 93 0.6 SW 6 7 3 4 1023.0 1023.0 0.0
30/07:27pm 11.5 10.5 10.4 93 0.6 SW 6 7 3 4 1023.0 1023.0 0.0
30/07:00pm 12.0 11.0 10.9 93 0.6 WSW 7 11 4 6 1022.6 1022.6 0.0
30/06:30pm 13.1 11.5 11.5 90 0.8 WSW 11 13 6 7 1022.0 1022.0 0.0
30/06:00pm 14.2 12.4 12.1 87 1.1 WSW 13 15 7 8 1021.6 1021.6 0.0
30/05:30pm 15.7 14.0 12.6 82 1.7 W 13 17 7 9 1021.6 1021.6 0.0
30/05:00pm 16.7 14.0 12.8 78 2.2 WSW 19 22 10 12 1021.6 1021.6 0.0
30/04:30pm 17.1 14.4 12.8 76 2.4 WSW 19 22 10 12 1021.2 1021.2 0.0
30/04:00pm 17.0 13.9 12.3 74 2.6 WSW 20 24 11 13 1021.2 1021.2 0.0
30/03:30pm 17.6 14.6 12.5 72 2.8 WSW 20 26 11 14 1020.8 1020.8 0.0
30/03:00pm 18.0 14.4 13.1 73 2.7 WSW 24 30 13 16 1020.7 1020.7 0.0
30/02:30pm 17.7 14.1 13.2 75 2.5 WSW 24 32 13 17 1020.9 1020.9 0.0
30/02:00pm 17.4 13.5 13.3 77 2.3 WSW 26 32 14 17 1020.8 1020.8 0.0
30/01:30pm 17.6 13.7 13.3 76 2.4 WSW 26 32 14 17 1021.0 1021.0 0.0
30/01:00pm 18.3 14.7 13.0 71 3.0 WSW 24 30 13 16 1021.2 1021.2 0.0
30/12:30pm 18.3 13.7 12.3 68 3.3 WSW 28 37 15 20 1021.5 1021.5 0.0
30/12:00pm 19.1 16.0 12.1 64 3.9 WSW 20 30 11 16 1021.7 1021.7 0.0
30/11:30am 18.2 14.4 5.8 44 6.0 WNW 15 20 8 11 1021.6 1021.6 0.0
30/11:00am 18.3 13.6 3.0 36 7.1 WNW 17 20 9 11 1021.4 1021.4 0.0
30/10:30am 17.4 12.3 1.0 33 7.2 NW 17 20 9 11 1021.3 1021.3 0.0
30/10:00am 15.7 10.9 -0.1 34 6.7 NNW 15 19 8 10 1021.2 1021.2 0.0
30/09:30am 15.1 10.7 0.2 36 6.3 NNW 13 19 7 10 1020.9 1020.9 0.0
30/09:00am 14.1 9.8 1.1 41 5.6 NNW 13 17 7 9 1020.5 1020.5 0.0
30/08:30am 13.5 9.5 0.5 41 5.5 NNW 11 15 6 8 1020.5 1020.5 0.0
30/08:00am 12.4 8.1 0.8 45 4.9 N 13 15 7 8 1019.6 1019.6 0.0
30/07:30am 13.4 10.3 0.1 40 5.5 NW 6 9 3 5 1019.5 1019.5 0.0
30/07:00am 14.2 9.2 -1.4 34 6.3 WNW 15 17 8 9 1019.4 1019.4 0.0
30/06:30am 14.9 8.8 -2.5 30 6.9 NNW 20 28 11 15 1018.7 1018.7 0.0
30/06:00am 15.5 9.5 -2.9 28 7.3 NNW 19 26 10 14 1018.8 1018.8 0.0
30/05:30am 15.3 8.4 -2.6 29 7.1 N 24 32 13 17 1018.1 1018.1 0.0
30/05:00am 15.5 8.6 -2.9 28 7.3 N 24 32 13 17 1017.9 1017.9 0.0
30/04:30am 15.7 8.8 -2.7 28 7.4 N 24 32 13 17 1018.1 1018.1 0.0
30/04:00am 15.7 8.0 -2.7 28 7.4 N 28 37 15 20 1018.2 1018.2 0.0
30/03:30am 15.5 8.3 -2.4 29 7.2 N 26 35 14 19 1018.2 1018.2 0.0
30/03:00am 15.3 7.6 -2.6 29 7.1 N 28 37 15 20 1018.5 1018.5 0.0
30/02:30am 15.2 8.0 -2.2 30 7.0 N 26 35 14 19 1019.0 1019.0 0.0
30/02:00am 15.0 7.4 -2.4 30 7.0 N 28 39 15 21 1019.2 1019.2 0.0
30/01:30am 15.0 7.4 -2.0 31 6.8 N 28 39 15 21 1019.6 1019.6 0.0
30/01:00am 15.4 8.6 -2.1 30 7.1 N 24 33 13 18 1020.0 1020.0 0.0
30/12:30am 15.3 8.8 -2.2 30 7.0 N 22 32 12 17 1020.4 1020.4 0.0
30/12:00am 15.4 9.3 -2.1 30 7.1 N 20 28 11 15 1020.8 1020.8 0.0
 
Date/Time
CST
Temp
°C
App
Temp
°C
Dew
Point
Rel
Hum
%
Delta-T
°C
Wind Press
QNH
hPa
Press
MSL
hPa
Rain
since 9 am
mm
Dir
 
Spd
km/h
Gust
km/h
Spd
kts
Gust
kts
29/11:30pm 15.3 8.1 -2.2 30 7.0 NNE 26 33 14 18 1020.8 1020.8 0.0
29/11:00pm 15.2 8.0 -2.2 30 7.0 NNE 26 33 14 18 1020.8 1020.8 0.0
29/10:30pm 15.5 7.9 -2.0 30 7.1 NNE 28 35 15 19 1021.1 1021.1 0.0
29/10:00pm 15.5 8.3 -2.0 30 7.1 NNE 26 35 14 19 1021.1 1021.1 0.0
29/09:30pm 15.2 8.7 -2.2 30 7.0 NNE 22 30 12 16 1021.4 1021.4 0.0
29/09:00pm 15.0 8.6 -2.0 31 6.8 NNE 22 28 12 15 1021.4 1021.4 0.0
29/08:30pm 14.3 8.9 -1.7 33 6.4 NNE 17 22 9 12 1021.7 1021.7 0.0
29/08:00pm 12.1 7.1 -1.1 40 5.3 NE 15 17 8 9 1021.9 1021.9 0.0
29/07:30pm 13.9 8.4 -2.1 33 6.4 NNE 17 19 9 10 1022.0 1022.0 0.0
29/07:00pm 14.0 8.5 -2.4 32 6.5 NNE 17 20 9 11 1021.8 1021.8 0.0
29/06:30pm 14.1 9.0 -2.3 32 6.5 NNE 15 17 8 9 1021.6 1021.6 0.0
29/06:00pm 15.9 10.0 -2.6 28 7.4 NNE 19 24 10 13 1021.2 1021.2 0.0
29/05:30pm 17.4 11.2 -2.8 25 8.2 NNE 20 28 11 15 1021.4 1021.4 0.0
29/05:00pm 18.8 11.4 -3.3 22 9.0 N 26 33 14 18 1021.4 1021.4 0.0
29/04:30pm 19.4 10.9 -3.5 21 9.3 N 32 39 17 21 1021.4 1021.4 0.0
29/04:00pm 19.8 11.3 -3.1 21 9.5 N 32 41 17 22 1021.5 1021.5 0.0
29/03:30pm 19.4 10.9 -3.5 21 9.3 N 32 43 17 23 1021.7 1021.7 0.0
29/03:00pm 19.2 10.6 -2.4 23 9.0 N 33 50 18 27 1022.0 1022.0 0.0
29/02:30pm 18.0 9.0 -2.8 24 8.5 N 35 46 19 25 1022.4 1022.4 0.0
29/02:00pm 18.7 9.1 -1.2 26 8.5 N 39 50 21 27 1022.7 1022.7 0.0
29/01:30pm 17.7 8.8 -2.0 26 8.1 N 35 48 19 26 1023.5 1023.5 0.0
29/01:00pm 17.6 8.9 -0.6 29 7.8 N 35 46 19 25 1024.1 1024.1 0.0
29/12:30pm 17.0 7.5 -0.7 30 7.5 N 39 52 21 28 1024.9 1024.9 0.0
29/12:00pm 16.4 8.0 -1.2 30 7.3 N 33 46 18 25 1025.8 1025.8 0.0
29/11:30am 16.0 7.9 -0.2 33 6.8 N 32 44 17 24 1026.4 1026.4 0.0
29/11:00am 14.9 7.7 0.7 38 6.1 N 28 35 15 19 1027.2 1027.2 0.0
29/10:30am 13.8 8.3 1.8 44 5.2 N 20 28 11 15 1027.9 1027.9 0.0
29/10:00am 12.1 6.4 0.8 46 4.7 N 20 28 11 15 1028.2 1028.2 0.0
29/09:30am 11.6 5.2 0.7 47 4.5 N 24 32 13 17 1028.1 1028.1 0.0
29/09:00am 11.0 5.4 1.3 51 4.0 N 20 28 11 15 1028.2 1028.2 0.0
29/08:30am 10.4 5.0 1.0 52 3.9 N 19 26 10 14 1027.7 1027.7 0.0
29/08:00am 10.0 4.4 0.9 53 3.7 NNE 20 24 11 13 1027.6 1027.6 0.0
29/07:30am 10.0 4.9 0.6 52 3.8 N 17 24 9 13 1027.8 1027.8 0.0
29/07:00am 10.7 4.2 0.4 49 4.2 N 24 32 13 17 1027.7 1027.7 0.0
29/06:30am 10.7 4.6 0.4 49 4.2 N 22 32 12 17 1027.3 1027.3 0.0
29/06:00am 10.4 3.2 0.7 51 3.9 NNE 28 41 15 22 1026.6 1026.6 0.0
29/05:30am 10.0 3.6 1.1 54 3.6 NNE 24 33 13 18 1026.9 1026.9 0.0
29/05:00am 9.0 2.6 1.0 57 3.3 NNE 24 32 13 17 1027.4 1027.4 0.0
29/04:30am 8.9 3.9 1.1 58 3.2 NNE 17 26 9 14 1027.9 1027.9 0.0
29/04:00am 9.7 5.1 1.4 56 3.4 NNE 15 22 8 12 1028.2 1028.2 0.0
29/03:30am 7.6 3.0 1.7 66 2.4 NNE 15 19 8 10 1028.1 1028.1 0.0
29/03:00am 7.7 2.8 2.0 67 2.3 NE 17 22 9 12 1028.1 1028.1 0.0
29/02:30am 7.2 1.9 1.9 69 2.1 NE 19 22 10 12 1028.3 1028.3 0.0
29/02:00am 7.5 2.1 2.2 69 2.2 NE 20 24 11 13 1028.5 1028.5 0.0
29/01:30am 7.3 1.9 2.6 72 1.9 NE 20 24 11 13 1029.4 1029.4 0.0
29/01:00am 6.6 1.4 2.3 74 1.8 NE 19 20 10 11 1029.3 1029.3 0.0
29/12:30am 6.7 1.9 2.6 75 1.7 NE 17 19 9 10 1029.3 1029.3 0.0
29/12:00am 5.5 0.8 3.2 85 0.9 NE 17 19 9 10 1029.5 1029.5 0.0
 
Date/Time
CST
Temp
°C
App
Temp
°C
Dew
Point
Rel
Hum
%
Delta-T
°C
Wind Press
QNH
hPa
Press
MSL
hPa
Rain
since 9 am
mm
Dir
 
Spd
km/h
Gust
km/h
Spd
kts
Gust
kts
28/11:30pm 5.3 1.6 2.3 81 1.2 NE 11 13 6 7 1029.8 1029.8 0.0
28/11:00pm 5.7 2.0 2.5 80 1.3 NE 11 15 6 8 1029.6 1029.6 0.0
28/10:30pm 6.2 3.0 3.0 80 1.3 ENE 9 11 5 6 1030.2 1030.2 0.0
28/10:00pm 7.1 2.4 3.3 77 1.6 ENE 17 20 9 11 1030.3 1030.3 0.0
28/09:30pm 6.7 2.5 3.7 81 1.3 ENE 15 17 8 9 1030.6 1030.6 0.0
28/09:00pm 7.5 2.9 3.9 78 1.5 ENE 17 17 9 9 1031.0 1031.0 0.0
28/08:30pm 7.0 2.4 3.8 80 1.4 ENE 17 20 9 11 1031.1 1031.1 0.0
28/08:00pm 8.1 3.6 4.1 76 1.7 ENE 17 17 9 9 1031.4 1031.4 0.0
28/07:30pm 8.2 4.1 4.4 77 1.6 NE 15 17 8 9 1031.3 1031.3 0.0
28/07:00pm 8.3 5.0 4.3 76 1.7 NE 11 15 6 8 1031.3 1031.3 0.0
28/06:30pm 9.9 5.8 4.5 69 2.4 NE 15 17 8 9 1031.0 1031.0 0.0
28/06:00pm 11.1 7.5 4.8 65 2.8 NE 13 15 7 8 1030.9 1030.9 0.0
28/05:30pm 13.6 9.9 4.7 55 4.1 NE 13 17 7 9 1030.7 1030.7 0.0
28/05:00pm 14.2 11.2 3.9 50 4.7 NE 9 13 5 7 1031.3 1031.3 0.0
28/04:30pm 16.1 11.5 3.9 44 5.6 NNE 17 20 9 11 1031.5 1031.5 0.0
28/04:00pm 15.8 11.9 3.6 44 5.6 NE 13 20 7 11 1031.7 1031.7 0.0
28/03:30pm 16.3 11.7 3.7 43 5.8 NNE 17 20 9 11 1031.7 1031.7 0.0
28/03:00pm 16.6 11.5 3.3 41 6.1 NNE 19 26 10 14 1032.3 1032.3 0.0
28/02:30pm 16.3 11.8 4.4 45 5.5 NNE 17 24 9 13 1032.9 1032.9 0.0
28/02:00pm 16.3 11.5 4.7 46 5.5 NNE 19 22 10 12 1033.1 1033.1 0.0
28/01:30pm 15.3 10.3 3.8 46 5.2 NE 19 26 10 14 1033.6 1033.6 0.0
28/01:00pm 15.6 10.5 4.3 47 5.3 NE 20 26 11 14 1034.1 1034.1 0.0
28/12:30pm 14.6 9.7 4.0 49 4.8 NE 19 26 10 14 1035.4 1035.4 0.0
28/12:00pm 14.7 9.7 4.7 51 4.6 NE 20 26 11 14 1035.8 1035.8 0.0
28/11:30am 14.1 9.2 5.2 55 4.1 NE 20 26 11 14 1036.1 1036.1 0.0
28/11:00am 12.9 7.8 6.0 63 3.3 NE 22 28 12 15 1036.4 1036.4 0.0
28/10:30am 12.1 7.3 5.7 65 2.9 NNE 20 28 11 15 1036.5 1036.5 0.0
28/10:00am 11.1 6.5 6.5 73 2.2 NNE 20 26 11 14 1036.6 1036.6 0.0
28/09:30am 8.8 4.0 5.7 81 1.4 NE 20 24 11 13 1036.5 1036.5 0.0
28/09:00am 7.6 3.4 5.6 87 0.9 NNE 17 22 9 12 1036.6 1036.6 0.0
28/08:30am 5.7 1.2 4.3 91 0.6 NE 17 20 9 11 1036.3 1036.3 0.0
28/08:00am 4.1 -0.6 3.4 95 0.3 ENE 17 20 9 11 1036.2 1036.2 0.0
28/07:30am 2.5 -2.7 2.4 99 0.0 ENE 19 20 10 11 1036.3 1036.3 0.0
28/07:00am 2.6 -2.2 2.5 99 0.0 ENE 17 19 9 10 1036.6 1036.6 0.0
28/06:30am 2.4 -2.1 2.4 100 0.0 ENE 15 17 8 9 1036.6 1036.6 0.0
28/06:00am 1.5 -1.4 1.5 100 0.0 NE 6 9 3 5 1036.7 1036.7 0.0

Other Formats:

Comma delimited format used in spreadsheet applications
http://www.bom.gov.au/fwo/IDS60801/IDS60801.94653.axf

JavaScript Object Notation format (JSON) in row-major order
http://www.bom.gov.au/fwo/IDS60801/IDS60801.94653.json